Terminal Aerodrome Forecast
Issued by NWS

Home | Current Version | Previous Version | Text Only | Print | Product List | Glossary On
Versions: 1 2 3 4 5 6 7 8 9 10 11 12 13 14 15 16
000
FTUS42 KMLB 201900 AAA
TAFSUA
TAF AMD
KSUA 201927Z 2019/2118 25010KT P6SM VCSH SCT025 BKN035
      TEMPO 2019/2021 4SM SHRA BR BKN015
     FM210000 27008KT P6SM VCSH SCT020 BKN060
     FM210400 29005KT P6SM SCT035 BKN250=

USA.gov is the U.S. government's official web portal to all federal, state and local government web resources and services.